sensor_id;sensor_type;location;lat;lon;timestamp;pressure;altitude;pressure_sealevel;temperature;humidity
71165;BME280;58859;55.132;-1.586;2024-02-23T00:01:26;97365.09;;;7.10;100.00
71165;BME280;58859;55.132;-1.586;2024-02-23T00:03:51;97370.44;;;6.83;100.00
71165;BME280;58859;55.132;-1.586;2024-02-23T00:06:17;97365.53;;;7.07;100.00
71165;BME280;58859;55.132;-1.586;2024-02-23T00:08:43;97369.09;;;7.12;100.00
71165;BME280;58859;55.132;-1.586;2024-02-23T00:11:08;97371.16;;;6.90;100.00
71165;BME280;58859;55.132;-1.586;2024-02-23T00:13:34;97366.84;;;7.22;100.00
71165;BME280;58859;55.132;-1.586;2024-02-23T00:15:59;97366.03;;;7.22;100.00
71165;BME280;58859;55.132;-1.586;2024-02-23T00:18:25;97369.44;;;6.78;100.00
71165;BME280;58859;55.132;-1.586;2024-02-23T00:20:50;97367.63;;;6.85;100.00
71165;BME280;58859;55.132;-1.586;2024-02-23T00:23:15;97357.59;;;6.64;100.00
71165;BME280;58859;55.132;-1.586;2024-02-23T00:25:41;97361.63;;;6.91;100.00
71165;BME280;58859;55.132;-1.586;2024-02-23T00:28:08;97360.94;;;6.71;100.00
71165;BME280;58859;55.132;-1.586;2024-02-23T00:30:34;97361.63;;;6.47;100.00
71165;BME280;58859;55.132;-1.586;2024-02-23T00:32:59;97355.59;;;6.59;100.00
71165;BME280;58859;55.132;-1.586;2024-02-23T00:35:24;97372.97;;;6.90;100.00
71165;BME280;58859;55.132;-1.586;2024-02-23T00:37:50;97371.97;;;6.91;100.00
71165;BME280;58859;55.132;-1.586;2024-02-23T00:40:16;97365.59;;;7.63;100.00
71165;BME280;58859;55.132;-1.586;2024-02-23T00:42:41;97356.66;;;8.26;100.00
71165;BME280;58859;55.132;-1.586;2024-02-23T00:45:07;97356.28;;;7.55;100.00
71165;BME280;58859;55.132;-1.586;2024-02-23T00:47:32;97345.41;;;7.96;100.00
71165;BME280;58859;55.132;-1.586;2024-02-23T00:49:58;97360.00;;;7.90;100.00
71165;BME280;58859;55.132;-1.586;2024-02-23T00:52:24;97353.06;;;7.35;100.00
71165;BME280;58859;55.132;-1.586;2024-02-23T00:54:49;97353.75;;;7.98;100.00
71165;BME280;58859;55.132;-1.586;2024-02-23T00:57:14;97342.06;;;7.15;100.00
71165;BME280;58859;55.132;-1.586;2024-02-23T00:59:41;97344.59;;;7.77;100.00
71165;BME280;58859;55.132;-1.586;2024-02-23T01:02:06;97341.34;;;8.25;100.00
71165;BME280;58859;55.132;-1.586;2024-02-23T01:04:32;97347.81;;;7.41;100.00
71165;BME280;58859;55.132;-1.586;2024-02-23T01:06:58;97336.53;;;7.61;100.00
71165;BME280;58859;55.132;-1.586;2024-02-23T01:09:23;97348.09;;;7.33;100.00
71165;BME280;58859;55.132;-1.586;2024-02-23T01:11:49;97343.66;;;7.09;100.00
71165;BME280;58859;55.132;-1.586;2024-02-23T01:14:15;97342.34;;;7.31;100.00
71165;BME280;58859;55.132;-1.586;2024-02-23T01:16:40;97345.31;;;6.97;100.00
71165;BME280;58859;55.132;-1.586;2024-02-23T01:19:05;97350.66;;;7.65;100.00
71165;BME280;58859;55.132;-1.586;2024-02-23T01:21:31;97350.44;;;7.66;100.00
71165;BME280;58859;55.132;-1.586;2024-02-23T01:23:56;97347.19;;;7.77;100.00
71165;BME280;58859;55.132;-1.586;2024-02-23T01:26:23;97346.75;;;7.80;100.00
71165;BME280;58859;55.132;-1.586;2024-02-23T01:28:48;97362.31;;;7.49;100.00
71165;BME280;58859;55.132;-1.586;2024-02-23T01:31:14;97347.34;;;8.25;100.00
71165;BME280;58859;55.132;-1.586;2024-02-23T01:33:39;97356.88;;;7.82;100.00
71165;BME280;58859;55.132;-1.586;2024-02-23T01:36:05;97351.22;;;7.42;100.00
71165;BME280;58859;55.132;-1.586;2024-02-23T01:38:31;97350.13;;;7.81;100.00
71165;BME280;58859;55.132;-1.586;2024-02-23T01:40:58;97346.31;;;7.83;100.00
71165;BME280;58859;55.132;-1.586;2024-02-23T01:43:24;97338.28;;;7.42;100.00
71165;BME280;58859;55.132;-1.586;2024-02-23T01:45:49;97344.00;;;7.19;100.00
71165;BME280;58859;55.132;-1.586;2024-02-23T01:48:15;97341.97;;;7.52;100.00
71165;BME280;58859;55.132;-1.586;2024-02-23T01:50:42;97328.28;;;7.95;100.00
71165;BME280;58859;55.132;-1.586;2024-02-23T01:53:08;97330.19;;;7.63;100.00
71165;BME280;58859;55.132;-1.586;2024-02-23T01:55:36;97342.09;;;8.32;100.00
71165;BME280;58859;55.132;-1.586;2024-02-23T01:58:04;97345.38;;;7.22;100.00
71165;BME280;58859;55.132;-1.586;2024-02-23T02:00:29;97349.13;;;7.57;100.00
71165;BME280;58859;55.132;-1.586;2024-02-23T02:02:55;97342.75;;;7.28;100.00
71165;BME280;58859;55.132;-1.586;2024-02-23T02:05:20;97354.31;;;7.26;100.00
71165;BME280;58859;55.132;-1.586;2024-02-23T02:07:47;97349.25;;;7.37;100.00
71165;BME280;58859;55.132;-1.586;2024-02-23T02:10:16;97347.94;;;7.78;100.00
71165;BME280;58859;55.132;-1.586;2024-02-23T02:12:42;97352.53;;;7.76;100.00
71165;BME280;58859;55.132;-1.586;2024-02-23T02:15:08;97353.50;;;7.81;100.00
71165;BME280;58859;55.132;-1.586;2024-02-23T02:17:34;97348.59;;;8.59;100.00
71165;BME280;58859;55.132;-1.586;2024-02-23T02:20:02;97357.03;;;8.12;100.00
71165;BME280;58859;55.132;-1.586;2024-02-23T02:22:34;97355.19;;;7.94;100.00
71165;BME280;58859;55.132;-1.586;2024-02-23T02:24:59;97355.66;;;7.84;100.00
71165;BME280;58859;55.132;-1.586;2024-02-23T02:27:25;97359.31;;;7.77;100.00
71165;BME280;58859;55.132;-1.586;2024-02-23T02:29:51;97350.34;;;8.22;100.00
71165;BME280;58859;55.132;-1.586;2024-02-23T02:32:17;97356.22;;;8.54;100.00
71165;BME280;58859;55.132;-1.586;2024-02-23T02:34:42;97344.50;;;7.84;100.00
71165;BME280;58859;55.132;-1.586;2024-02-23T02:37:08;97355.00;;;9.04;100.00
71165;BME280;58859;55.132;-1.586;2024-02-23T02:39:33;97347.28;;;8.07;100.00
71165;BME280;58859;55.132;-1.586;2024-02-23T02:41:59;97339.63;;;7.76;100.00
71165;BME280;58859;55.132;-1.586;2024-02-23T02:44:24;97346.50;;;8.06;100.00
71165;BME280;58859;55.132;-1.586;2024-02-23T02:46:51;97341.44;;;7.44;100.00
71165;BME280;58859;55.132;-1.586;2024-02-23T02:49:17;97352.41;;;8.38;100.00
71165;BME280;58859;55.132;-1.586;2024-02-23T02:51:42;97346.16;;;7.78;100.00
71165;BME280;58859;55.132;-1.586;2024-02-23T02:54:08;97345.34;;;7.78;100.00
71165;BME280;58859;55.132;-1.586;2024-02-23T02:56:33;97348.22;;;7.94;100.00
71165;BME280;58859;55.132;-1.586;2024-02-23T02:58:59;97356.66;;;7.59;100.00
71165;BME280;58859;55.132;-1.586;2024-02-23T03:01:24;97344.50;;;8.27;100.00
71165;BME280;58859;55.132;-1.586;2024-02-23T03:03:50;97344.91;;;8.85;100.00
71165;BME280;58859;55.132;-1.586;2024-02-23T03:06:15;97346.72;;;7.56;100.00
71165;BME280;58859;55.132;-1.586;2024-02-23T03:08:43;97329.66;;;7.23;100.00
71165;BME280;58859;55.132;-1.586;2024-02-23T03:11:09;97333.34;;;7.40;100.00
71165;BME280;58859;55.132;-1.586;2024-02-23T03:13:34;97337.09;;;7.38;100.00
71165;BME280;58859;55.132;-1.586;2024-02-23T03:15:59;97344.09;;;7.87;100.00
71165;BME280;58859;55.132;-1.586;2024-02-23T03:18:25;97312.69;;;7.34;100.00
71165;BME280;58859;55.132;-1.586;2024-02-23T03:20:53;97337.31;;;7.05;100.00
71165;BME280;58859;55.132;-1.586;2024-02-23T03:23:18;97341.69;;;7.05;100.00
71165;BME280;58859;55.132;-1.586;2024-02-23T03:25:44;97334.63;;;7.49;100.00
71165;BME280;58859;55.132;-1.586;2024-02-23T03:28:09;97335.75;;;7.85;100.00
71165;BME280;58859;55.132;-1.586;2024-02-23T03:30:34;97341.06;;;7.72;100.00
71165;BME280;58859;55.132;-1.586;2024-02-23T03:33:00;97338.31;;;7.35;100.00
71165;BME280;58859;55.132;-1.586;2024-02-23T03:35:25;97337.56;;;7.35;100.00
71165;BME280;58859;55.132;-1.586;2024-02-23T03:37:51;97338.03;;;7.19;100.00
71165;BME280;58859;55.132;-1.586;2024-02-23T03:40:16;97340.94;;;7.60;100.00
71165;BME280;58859;55.132;-1.586;2024-02-23T03:42:44;97342.25;;;7.44;100.00
71165;BME280;58859;55.132;-1.586;2024-02-23T03:45:09;97345.41;;;7.46;100.00
71165;BME280;58859;55.132;-1.586;2024-02-23T03:47:35;97342.34;;;7.56;100.00
71165;BME280;58859;55.132;-1.586;2024-02-23T03:50:00;97347.78;;;7.73;100.00
71165;BME280;58859;55.132;-1.586;2024-02-23T03:52:26;97345.84;;;7.68;100.00
71165;BME280;58859;55.132;-1.586;2024-02-23T03:54:51;97348.91;;;7.59;100.00
71165;BME280;58859;55.132;-1.586;2024-02-23T03:57:17;97352.31;;;7.52;100.00
71165;BME280;58859;55.132;-1.586;2024-02-23T03:59:52;97352.91;;;7.55;100.00
71165;BME280;58859;55.132;-1.586;2024-02-23T04:02:18;97350.78;;;7.45;100.00
71165;BME280;58859;55.132;-1.586;2024-02-23T04:04:44;97353.75;;;7.48;100.00
71165;BME280;58859;55.132;-1.586;2024-02-23T04:07:09;97345.41;;;7.46;100.00
71165;BME280;58859;55.132;-1.586;2024-02-23T04:09:35;97340.72;;;7.62;100.00
71165;BME280;58859;55.132;-1.586;2024-02-23T04:12:00;97349.03;;;7.39;100.00
71165;BME280;58859;55.132;-1.586;2024-02-23T04:14:26;97353.53;;;7.50;100.00
71165;BME280;58859;55.132;-1.586;2024-02-23T04:16:51;97353.66;;;7.30;100.00
71165;BME280;58859;55.132;-1.586;2024-02-23T04:19:17;97352.13;;;7.23;100.00
71165;BME280;58859;55.132;-1.586;2024-02-23T04:21:42;97353.41;;;7.38;100.00
71165;BME280;58859;55.132;-1.586;2024-02-23T04:24:07;97359.22;;;7.34;100.00
71165;BME280;58859;55.132;-1.586;2024-02-23T04:26:34;97360.47;;;7.25;100.00
71165;BME280;58859;55.132;-1.586;2024-02-23T04:28:59;97349.69;;;7.59;100.00
71165;BME280;58859;55.132;-1.586;2024-02-23T04:31:24;97356.59;;;7.40;100.00
71165;BME280;58859;55.132;-1.586;2024-02-23T04:33:50;97343.16;;;7.25;100.00
71165;BME280;58859;55.132;-1.586;2024-02-23T04:36:19;97346.91;;;7.29;100.00
71165;BME280;58859;55.132;-1.586;2024-02-23T04:38:45;97351.38;;;7.47;100.00
71165;BME280;58859;55.132;-1.586;2024-02-23T04:41:10;97353.91;;;7.22;100.00
71165;BME280;58859;55.132;-1.586;2024-02-23T04:43:35;97370.16;;;7.29;100.00
71165;BME280;58859;55.132;-1.586;2024-02-23T04:46:01;97363.97;;;7.06;100.00
71165;BME280;58859;55.132;-1.586;2024-02-23T04:48:26;97364.91;;;7.11;100.00
71165;BME280;58859;55.132;-1.586;2024-02-23T04:50:52;97374.63;;;7.47;100.00
71165;BME280;58859;55.132;-1.586;2024-02-23T04:53:17;97364.91;;;7.49;100.00
71165;BME280;58859;55.132;-1.586;2024-02-23T04:55:43;97364.78;;;7.62;100.00
71165;BME280;58859;55.132;-1.586;2024-02-23T04:58:08;97348.31;;;7.57;100.00
71165;BME280;58859;55.132;-1.586;2024-02-23T05:00:33;97358.22;;;7.66;100.00
71165;BME280;58859;55.132;-1.586;2024-02-23T05:03:02;97353.63;;;7.37;100.00
71165;BME280;58859;55.132;-1.586;2024-02-23T05:05:31;97353.19;;;7.71;100.00
71165;BME280;58859;55.132;-1.586;2024-02-23T05:07:56;97335.59;;;7.24;100.00
71165;BME280;58859;55.132;-1.586;2024-02-23T05:10:22;97331.03;;;7.57;100.00
71165;BME280;58859;55.132;-1.586;2024-02-23T05:12:48;97319.34;;;7.48;100.00
71165;BME280;58859;55.132;-1.586;2024-02-23T05:15:14;97348.38;;;7.50;100.00
71165;BME280;58859;55.132;-1.586;2024-02-23T05:17:39;97339.09;;;7.42;100.00
71165;BME280;58859;55.132;-1.586;2024-02-23T05:20:05;97352.13;;;7.79;100.00
71165;BME280;58859;55.132;-1.586;2024-02-23T05:22:33;97322.50;;;6.87;100.00
71165;BME280;58859;55.132;-1.586;2024-02-23T05:24:59;97340.59;;;7.50;100.00
71165;BME280;58859;55.132;-1.586;2024-02-23T05:27:24;97349.47;;;7.61;100.00
71165;BME280;58859;55.132;-1.586;2024-02-23T05:29:50;97337.53;;;7.66;100.00
71165;BME280;58859;55.132;-1.586;2024-02-23T05:32:16;97337.28;;;7.43;100.00
71165;BME280;58859;55.132;-1.586;2024-02-23T05:34:42;97324.91;;;6.82;100.00
71165;BME280;58859;55.132;-1.586;2024-02-23T05:37:07;97340.72;;;6.99;100.00
71165;BME280;58859;55.132;-1.586;2024-02-23T05:39:33;97335.13;;;7.09;100.00
71165;BME280;58859;55.132;-1.586;2024-02-23T05:41:58;97337.22;;;7.49;100.00
71165;BME280;58859;55.132;-1.586;2024-02-23T05:44:25;97330.69;;;7.47;100.00
71165;BME280;58859;55.132;-1.586;2024-02-23T05:46:50;97315.66;;;7.37;100.00
71165;BME280;58859;55.132;-1.586;2024-02-23T05:49:16;97339.75;;;7.31;100.00
71165;BME280;58859;55.132;-1.586;2024-02-23T05:51:41;97345.75;;;6.87;100.00
71165;BME280;58859;55.132;-1.586;2024-02-23T05:54:07;97355.16;;;7.13;100.00
71165;BME280;58859;55.132;-1.586;2024-02-23T05:56:33;97362.47;;;7.23;100.00
71165;BME280;58859;55.132;-1.586;2024-02-23T05:58:58;97359.53;;;7.13;100.00
71165;BME280;58859;55.132;-1.586;2024-02-23T06:01:24;97327.81;;;6.99;100.00
71165;BME280;58859;55.132;-1.586;2024-02-23T06:03:50;97369.97;;;7.31;100.00
71165;BME280;58859;55.132;-1.586;2024-02-23T06:06:15;97375.47;;;7.41;100.00
71165;BME280;58859;55.132;-1.586;2024-02-23T06:08:41;97372.56;;;7.31;100.00
71165;BME280;58859;55.132;-1.586;2024-02-23T06:11:06;97391.84;;;6.90;100.00
71165;BME280;58859;55.132;-1.586;2024-02-23T06:13:34;97385.97;;;7.15;100.00
71165;BME280;58859;55.132;-1.586;2024-02-23T06:15:59;97393.94;;;7.07;100.00
71165;BME280;58859;55.132;-1.586;2024-02-23T06:18:25;97383.69;;;6.93;100.00
71165;BME280;58859;55.132;-1.586;2024-02-23T06:20:50;97394.97;;;7.06;100.00
71165;BME280;58859;55.132;-1.586;2024-02-23T06:23:16;97387.81;;;7.01;100.00
71165;BME280;58859;55.132;-1.586;2024-02-23T06:25:42;97397.09;;;7.46;100.00
71165;BME280;58859;55.132;-1.586;2024-02-23T06:28:07;97391.59;;;7.43;100.00
71165;BME280;58859;55.132;-1.586;2024-02-23T06:30:32;97403.34;;;7.32;100.00
71165;BME280;58859;55.132;-1.586;2024-02-23T06:32:58;97407.63;;;7.20;100.00
71165;BME280;58859;55.132;-1.586;2024-02-23T06:35:23;97401.59;;;6.88;100.00
71165;BME280;58859;55.132;-1.586;2024-02-23T06:37:49;97402.31;;;7.02;100.00
71165;BME280;58859;55.132;-1.586;2024-02-23T06:40:14;97407.66;;;7.07;100.00
71165;BME280;58859;55.132;-1.586;2024-02-23T06:42:40;97407.66;;;7.07;100.00
71165;BME280;58859;55.132;-1.586;2024-02-23T06:45:06;97405.16;;;7.32;100.00
71165;BME280;58859;55.132;-1.586;2024-02-23T06:47:33;97413.25;;;7.42;100.00
71165;BME280;58859;55.132;-1.586;2024-02-23T06:49:59;97409.28;;;7.02;100.00
71165;BME280;58859;55.132;-1.586;2024-02-23T06:52:24;97416.69;;;7.92;100.00
71165;BME280;58859;55.132;-1.586;2024-02-23T06:54:51;97413.91;;;7.93;100.00
71165;BME280;58859;55.132;-1.586;2024-02-23T06:57:17;97429.19;;;7.95;100.00
71165;BME280;58859;55.132;-1.586;2024-02-23T06:59:43;97411.47;;;8.84;100.00
71165;BME280;58859;55.132;-1.586;2024-02-23T07:02:08;97417.63;;;8.47;100.00
71165;BME280;58859;55.132;-1.586;2024-02-23T07:04:33;97429.94;;;8.27;100.00
71165;BME280;58859;55.132;-1.586;2024-02-23T07:06:59;97412.59;;;7.78;100.00
71165;BME280;58859;55.132;-1.586;2024-02-23T07:09:25;97413.09;;;8.97;100.00
71165;BME280;58859;55.132;-1.586;2024-02-23T07:11:50;97412.22;;;9.21;100.00
71165;BME280;58859;55.132;-1.586;2024-02-23T07:14:16;97419.81;;;8.50;100.00
71165;BME280;58859;55.132;-1.586;2024-02-23T07:16:42;97427.28;;;8.40;100.00
71165;BME280;58859;55.132;-1.586;2024-02-23T07:19:08;97431.88;;;7.57;100.00
71165;BME280;58859;55.132;-1.586;2024-02-23T07:21:34;97434.16;;;7.72;100.00
71165;BME280;58859;55.132;-1.586;2024-02-23T07:24:00;97441.56;;;8.18;100.00
71165;BME280;58859;55.132;-1.586;2024-02-23T07:26:26;97433.97;;;7.35;100.00
71165;BME280;58859;55.132;-1.586;2024-02-23T07:28:53;97421.66;;;7.69;100.00
71165;BME280;58859;55.132;-1.586;2024-02-23T07:31:19;97432.09;;;8.12;100.00
71165;BME280;58859;55.132;-1.586;2024-02-23T07:33:44;97431.75;;;7.77;100.00
71165;BME280;58859;55.132;-1.586;2024-02-23T07:36:16;97428.47;;;7.63;100.00
71165;BME280;58859;55.132;-1.586;2024-02-23T07:38:42;97424.81;;;7.39;100.00
71165;BME280;58859;55.132;-1.586;2024-02-23T07:41:10;97433.06;;;7.86;100.00
71165;BME280;58859;55.132;-1.586;2024-02-23T07:43:35;97424.13;;;8.06;100.00
71165;BME280;58859;55.132;-1.586;2024-02-23T07:46:01;97420.44;;;9.00;100.00
71165;BME280;58859;55.132;-1.586;2024-02-23T07:48:27;97423.75;;;8.52;100.00
71165;BME280;58859;55.132;-1.586;2024-02-23T07:50:53;97418.63;;;8.46;100.00
71165;BME280;58859;55.132;-1.586;2024-02-23T07:53:18;97408.09;;;9.32;100.00
71165;BME280;58859;55.132;-1.586;2024-02-23T07:55:44;97432.56;;;9.65;100.00
71165;BME280;58859;55.132;-1.586;2024-02-23T07:58:09;97433.47;;;9.11;100.00
71165;BME280;58859;55.132;-1.586;2024-02-23T08:00:34;97434.56;;;9.04;100.00
71165;BME280;58859;55.132;-1.586;2024-02-23T08:03:03;97408.63;;;7.82;100.00
71165;BME280;58859;55.132;-1.586;2024-02-23T08:05:28;97431.19;;;10.04;100.00
71165;BME280;58859;55.132;-1.586;2024-02-23T08:07:54;97447.91;;;9.37;100.00
71165;BME280;58859;55.132;-1.586;2024-02-23T08:10:19;97442.75;;;8.83;100.00
71165;BME280;58859;55.132;-1.586;2024-02-23T08:12:46;97447.50;;;8.49;100.00
71165;BME280;58859;55.132;-1.586;2024-02-23T08:15:12;97453.91;;;9.19;100.00
71165;BME280;58859;55.132;-1.586;2024-02-23T08:17:37;97464.09;;;9.51;100.00
71165;BME280;58859;55.132;-1.586;2024-02-23T08:20:03;97456.63;;;10.95;100.00
71165;BME280;58859;55.132;-1.586;2024-02-23T08:22:29;97452.78;;;10.28;100.00
71165;BME280;58859;55.132;-1.586;2024-02-23T08:24:55;97459.41;;;8.93;100.00
71165;BME280;58859;55.132;-1.586;2024-02-23T08:27:20;97446.97;;;10.56;100.00
71165;BME280;58859;55.132;-1.586;2024-02-23T08:29:45;97451.22;;;10.73;100.00
71165;BME280;58859;55.132;-1.586;2024-02-23T08:32:11;97441.66;;;11.42;100.00
71165;BME280;58859;55.132;-1.586;2024-02-23T08:34:36;97435.31;;;13.21;100.00
71165;BME280;58859;55.132;-1.586;2024-02-23T08:37:02;97425.78;;;12.72;100.00
71165;BME280;58859;55.132;-1.586;2024-02-23T08:39:27;97446.72;;;11.20;100.00
71165;BME280;58859;55.132;-1.586;2024-02-23T08:41:54;97437.88;;;10.81;100.00
71165;BME280;58859;55.132;-1.586;2024-02-23T08:44:20;97441.94;;;10.89;100.00
71165;BME280;58859;55.132;-1.586;2024-02-23T08:46:45;97448.50;;;10.33;100.00
71165;BME280;58859;55.132;-1.586;2024-02-23T08:49:10;97444.22;;;10.51;100.00
71165;BME280;58859;55.132;-1.586;2024-02-23T08:51:36;97435.06;;;10.48;100.00
71165;BME280;58859;55.132;-1.586;2024-02-23T08:54:02;97453.22;;;10.02;100.00
71165;BME280;58859;55.132;-1.586;2024-02-23T08:56:30;97455.06;;;10.13;100.00
71165;BME280;58859;55.132;-1.586;2024-02-23T08:58:55;97465.84;;;9.39;100.00
71165;BME280;58859;55.132;-1.586;2024-02-23T09:01:21;97464.44;;;9.24;100.00
71165;BME280;58859;55.132;-1.586;2024-02-23T09:03:46;97469.94;;;9.16;100.00
71165;BME280;58859;55.132;-1.586;2024-02-23T09:06:12;97478.47;;;9.35;100.00
71165;BME280;58859;55.132;-1.586;2024-02-23T09:08:37;97476.19;;;9.57;100.00
71165;BME280;58859;55.132;-1.586;2024-02-23T09:11:03;97467.00;;;10.14;100.00
71165;BME280;58859;55.132;-1.586;2024-02-23T09:13:28;97476.69;;;10.07;100.00
71165;BME280;58859;55.132;-1.586;2024-02-23T09:15:55;97482.22;;;9.99;100.00
71165;BME280;58859;55.132;-1.586;2024-02-23T09:18:20;97476.03;;;13.97;100.00
71165;BME280;58859;55.132;-1.586;2024-02-23T09:20:46;97475.91;;;12.24;100.00
71165;BME280;58859;55.132;-1.586;2024-02-23T09:23:11;97462.41;;;15.68;100.00
71165;BME280;58859;55.132;-1.586;2024-02-23T09:25:37;97479.97;;;14.58;100.00
71165;BME280;58859;55.132;-1.586;2024-02-23T09:28:03;97452.38;;;12.35;100.00
71165;BME280;58859;55.132;-1.586;2024-02-23T09:30:28;97486.88;;;11.13;100.00
71165;BME280;58859;55.132;-1.586;2024-02-23T09:32:54;97488.50;;;10.32;100.00
71165;BME280;58859;55.132;-1.586;2024-02-23T09:35:20;97494.16;;;10.00;100.00
71165;BME280;58859;55.132;-1.586;2024-02-23T09:37:45;97494.22;;;9.81;100.00
71165;BME280;58859;55.132;-1.586;2024-02-23T09:40:11;97506.97;;;9.53;100.00
71165;BME280;58859;55.132;-1.586;2024-02-23T09:42:36;97511.00;;;10.38;100.00
71165;BME280;58859;55.132;-1.586;2024-02-23T09:45:05;97512.72;;;9.85;100.00
71165;BME280;58859;55.132;-1.586;2024-02-23T09:47:31;97530.88;;;10.33;100.00
71165;BME280;58859;55.132;-1.586;2024-02-23T09:49:56;97525.53;;;10.39;100.00
71165;BME280;58859;55.132;-1.586;2024-02-23T09:52:22;97520.16;;;10.41;100.00
71165;BME280;58859;55.132;-1.586;2024-02-23T09:54:48;97530.91;;;9.55;100.00
71165;BME280;58859;55.132;-1.586;2024-02-23T09:57:15;97538.16;;;9.95;100.00
71165;BME280;58859;55.132;-1.586;2024-02-23T09:59:41;97532.75;;;9.66;100.00
71165;BME280;58859;55.132;-1.586;2024-02-23T10:02:11;97539.97;;;9.94;100.00
71165;BME280;58859;55.132;-1.586;2024-02-23T10:04:40;97545.50;;;10.16;100.00
71165;BME280;58859;55.132;-1.586;2024-02-23T10:07:06;97550.88;;;9.85;100.00
71165;BME280;58859;55.132;-1.586;2024-02-23T10:09:32;97557.09;;;10.13;100.00
71165;BME280;58859;55.132;-1.586;2024-02-23T10:11:58;97547.25;;;9.56;100.00
71165;BME280;58859;55.132;-1.586;2024-02-23T10:14:23;97547.38;;;9.43;100.00
71165;BME280;58859;55.132;-1.586;2024-02-23T10:16:48;97542.03;;;10.04;100.00
71165;BME280;58859;55.132;-1.586;2024-02-23T10:19:21;97551.97;;;10.07;100.00
71165;BME280;58859;55.132;-1.586;2024-02-23T10:21:46;97557.22;;;10.71;100.00
71165;BME280;58859;55.132;-1.586;2024-02-23T10:24:13;97555.09;;;9.97;100.00
71165;BME280;58859;55.132;-1.586;2024-02-23T10:26:39;97552.91;;;10.12;100.00
71165;BME280;58859;55.132;-1.586;2024-02-23T10:29:04;97556.84;;;10.33;100.00
71165;BME280;58859;55.132;-1.586;2024-02-23T10:31:35;97558.50;;;9.98;100.00
71165;BME280;58859;55.132;-1.586;2024-02-23T10:34:09;97541.25;;;11.26;100.00
71165;BME280;58859;55.132;-1.586;2024-02-23T10:36:40;97554.19;;;11.72;100.00
71165;BME280;58859;55.132;-1.586;2024-02-23T10:39:07;97563.50;;;10.41;100.00
71165;BME280;58859;55.132;-1.586;2024-02-23T10:41:35;97545.63;;;12.17;100.00
71165;BME280;58859;55.132;-1.586;2024-02-23T10:44:01;97554.13;;;11.32;100.00
71165;BME280;58859;55.132;-1.586;2024-02-23T10:46:30;97563.50;;;11.45;100.00
71165;BME280;58859;55.132;-1.586;2024-02-23T10:48:58;97569.19;;;11.19;100.00
71165;BME280;58859;55.132;-1.586;2024-02-23T10:51:25;97558.28;;;12.41;100.00
71165;BME280;58859;55.132;-1.586;2024-02-23T10:53:52;97564.06;;;12.77;100.00
71165;BME280;58859;55.132;-1.586;2024-02-23T10:56:18;97564.88;;;13.32;100.00
71165;BME280;58859;55.132;-1.586;2024-02-23T10:58:43;97577.34;;;12.75;100.00
71165;BME280;58859;55.132;-1.586;2024-02-23T11:01:10;97565.66;;;13.98;100.00
71165;BME280;58859;55.132;-1.586;2024-02-23T11:03:37;97570.28;;;13.91;100.00
71165;BME280;58859;55.132;-1.586;2024-02-23T11:06:06;97577.22;;;14.55;100.00
71165;BME280;58859;55.132;-1.586;2024-02-23T11:08:33;97580.72;;;15.03;100.00
71165;BME280;58859;55.132;-1.586;2024-02-23T11:11:07;97580.25;;;15.16;100.00
71165;BME280;58859;55.132;-1.586;2024-02-23T11:13:36;97588.31;;;16.03;100.00
71165;BME280;58859;55.132;-1.586;2024-02-23T11:16:06;97584.31;;;15.80;100.00
71165;BME280;58859;55.132;-1.586;2024-02-23T11:18:33;97599.16;;;16.72;100.00
71165;BME280;58859;55.132;-1.586;2024-02-23T11:21:00;97605.97;;;15.61;100.00
71165;BME280;58859;55.132;-1.586;2024-02-23T11:23:27;97595.31;;;15.35;100.00
71165;BME280;58859;55.132;-1.586;2024-02-23T11:26:19;97596.63;;;15.85;100.00
71165;BME280;58859;55.132;-1.586;2024-02-23T11:28:49;97601.50;;;16.48;100.00
71165;BME280;58859;55.132;-1.586;2024-02-23T11:31:15;97601.13;;;15.99;100.00
71165;BME280;58859;55.132;-1.586;2024-02-23T11:33:50;97616.03;;;15.00;100.00
71165;BME280;58859;55.132;-1.586;2024-02-23T11:36:29;97593.66;;;14.24;100.00
71165;BME280;58859;55.132;-1.586;2024-02-23T11:38:56;97613.94;;;14.70;100.00
71165;BME280;58859;55.132;-1.586;2024-02-23T11:41:23;97601.03;;;15.74;100.00
71165;BME280;58859;55.132;-1.586;2024-02-23T11:43:50;97612.09;;;15.86;100.00
71165;BME280;58859;55.132;-1.586;2024-02-23T11:46:16;97608.28;;;16.29;100.00
71165;BME280;58859;55.132;-1.586;2024-02-23T11:48:42;97596.22;;;16.28;100.00
71165;BME280;58859;55.132;-1.586;2024-02-23T11:51:09;97611.56;;;15.89;100.00
71165;BME280;58859;55.132;-1.586;2024-02-23T11:53:39;97608.63;;;16.93;100.00
71165;BME280;58859;55.132;-1.586;2024-02-23T11:56:07;97625.03;;;16.18;100.00
71165;BME280;58859;55.132;-1.586;2024-02-23T11:58:34;97595.53;;;15.71;100.00
71165;BME280;58859;55.132;-1.586;2024-02-23T12:01:00;97618.97;;;16.07;100.00
71165;BME280;58859;55.132;-1.586;2024-02-23T12:03:30;97623.41;;;16.02;100.00
71165;BME280;58859;55.132;-1.586;2024-02-23T12:06:00;97619.59;;;16.45;100.00
71165;BME280;58859;55.132;-1.586;2024-02-23T12:08:26;97621.91;;;16.21;100.00
71165;BME280;58859;55.132;-1.586;2024-02-23T12:10:54;97628.56;;;16.59;100.00
71165;BME280;58859;55.132;-1.586;2024-02-23T12:13:20;97631.69;;;17.27;100.00
71165;BME280;58859;55.132;-1.586;2024-02-23T12:15:47;97631.72;;;17.16;100.00
71165;BME280;58859;55.132;-1.586;2024-02-23T12:18:13;97629.38;;;17.05;100.00
71165;BME280;58859;55.132;-1.586;2024-02-23T12:20:38;97634.03;;;16.47;100.00
71165;BME280;58859;55.132;-1.586;2024-02-23T12:23:04;97640.03;;;16.33;100.00
71165;BME280;58859;55.132;-1.586;2024-02-23T12:25:29;97616.50;;;16.73;100.00
71165;BME280;58859;55.132;-1.586;2024-02-23T12:27:56;97644.84;;;16.76;100.00
71165;BME280;58859;55.132;-1.586;2024-02-23T12:30:28;97640.38;;;17.12;100.00
71165;BME280;58859;55.132;-1.586;2024-02-23T12:33:06;97651.38;;;17.59;100.00
71165;BME280;58859;55.132;-1.586;2024-02-23T12:35:36;97656.56;;;16.43;100.00
71165;BME280;58859;55.132;-1.586;2024-02-23T12:38:01;97656.41;;;17.00;100.00
71165;BME280;58859;55.132;-1.586;2024-02-23T12:40:27;97661.31;;;17.77;100.00
71165;BME280;58859;55.132;-1.586;2024-02-23T12:42:52;97660.56;;;16.56;100.00